Time;durP1;ratioP1;P1;durP2;ratioP2;P2;SDS_P1;SDS_P2;PMS_P1;PMS_P2;Temp;Humidity;BMP_temperature;BMP_pressure;BME280_temperature;BME280_humidity;BME280_pressure;Samples;Min_cycle;Max_cycle;Signal;HPM_P1;HPM_P2
2021/08/15 00:01:14;;;;;;;7.50;6.80;;;;;;;;;;5110071;28;20035;-81
2021/08/15 00:03:40;;;;;;;8.50;7.65;;;;;;;;;;5110956;28;20454;-82
2021/08/15 00:06:06;;;;;;;10.35;8.52;;;;;;;;;;5110201;28;20674;-82
2021/08/15 00:08:33;;;;;;;8.55;7.70;;;;;;;;;;5101714;28;20021;-82
2021/08/15 00:11:01;;;;;;;8.07;7.28;;;;;;;;;;5093215;28;20058;-82
2021/08/15 00:13:27;;;;;;;7.88;7.18;;;;;;;;;;5109024;28;20034;-82
2021/08/15 00:15:54;;;;;;;8.43;7.55;;;;;;;;;;5109127;28;20021;-80
2021/08/15 00:18:21;;;;;;;8.07;7.18;;;;;;;;;;5096752;28;20024;-82
2021/08/15 00:20:47;;;;;;;8.88;7.97;;;;;;;;;;5089011;28;20020;-82
2021/08/15 00:23:13;;;;;;;8.55;7.32;;;;;;;;;;5070608;28;20068;-82
2021/08/15 00:25:39;;;;;;;8.43;7.55;;;;;;;;;;5088288;28;20050;-81
2021/08/15 00:28:06;;;;;;;8.50;7.70;;;;;;;;;;5088454;28;20059;-82
2021/08/15 00:30:32;;;;;;;8.07;7.28;;;;;;;;;;5106307;28;20020;-82
2021/08/15 00:32:58;;;;;;;7.38;6.68;;;;;;;;;;5107066;28;20028;-81
2021/08/15 00:35:24;;;;;;;8.45;7.65;;;;;;;;;;5107511;28;20078;-80
2021/08/15 00:37:50;;;;;;;8.23;7.43;;;;;;;;;;5087614;28;20167;-80
2021/08/15 00:40:18;;;;;;;11.35;9.35;;;;;;;;;;5106745;28;20028;-81
2021/08/15 00:42:47;;;;;;;11.60;9.40;;;;;;;;;;5109233;28;20069;-81
2021/08/15 00:45:13;;;;;;;10.40;9.32;;;;;;;;;;5100455;28;20039;-81
2021/08/15 00:47:39;;;;;;;13.20;10.13;;;;;;;;;;5072121;28;20017;-81
2021/08/15 00:50:06;;;;;;;14.90;9.38;;;;;;;;;;5086305;28;20020;-81
2021/08/15 00:52:32;;;;;;;15.30;9.07;;;;;;;;;;5089258;28;20040;-82
2021/08/15 00:54:59;;;;;;;10.68;9.43;;;;;;;;;;5095455;28;20016;-82
2021/08/15 00:57:26;;;;;;;10.30;9.20;;;;;;;;;;5094960;28;20043;-82
2021/08/15 00:59:52;;;;;;;9.73;8.75;;;;;;;;;;5096955;28;20023;-82
2021/08/15 01:02:18;;;;;;;9.48;8.50;;;;;;;;;;5077947;28;20023;-82
2021/08/15 01:04:45;;;;;;;8.82;8.02;;;;;;;;;;5087894;28;20046;-81
2021/08/15 01:07:11;;;;;;;9.80;8.80;;;;;;;;;;5080724;28;20072;-81
2021/08/15 01:09:41;;;;;;;9.85;8.85;;;;;;;;;;5080382;28;20469;-82
2021/08/15 01:12:07;;;;;;;9.85;8.88;;;;;;;;;;5088618;28;20031;-82
2021/08/15 01:14:33;;;;;;;10.25;9.15;;;;;;;;;;5103732;28;20028;-82
2021/08/15 01:16:59;;;;;;;12.68;9.32;;;;;;;;;;5079507;28;20016;-82
2021/08/15 01:19:29;;;;;;;11.05;9.43;;;;;;;;;;5089176;28;20024;-79
2021/08/15 01:21:55;;;;;;;10.30;9.30;;;;;;;;;;5087581;28;20032;-80
2021/08/15 01:24:21;;;;;;;9.77;8.57;;;;;;;;;;5089299;28;20036;-80
2021/08/15 01:26:48;;;;;;;9.60;8.70;;;;;;;;;;5095417;28;20068;-81
2021/08/15 01:29:14;;;;;;;8.88;7.90;;;;;;;;;;5096244;28;20070;-82
2021/08/15 01:31:40;;;;;;;8.25;7.53;;;;;;;;;;5101249;28;20012;-82
2021/08/15 01:34:06;;;;;;;9.55;8.48;;;;;;;;;;5109844;28;20052;-81
2021/08/15 01:36:32;;;;;;;8.75;7.95;;;;;;;;;;5108048;28;20043;-81
2021/08/15 01:38:58;;;;;;;9.80;7.85;;;;;;;;;;5107023;28;20028;-81
2021/08/15 01:41:24;;;;;;;9.80;7.97;;;;;;;;;;5088299;28;20020;-81
2021/08/15 01:43:55;;;;;;;12.75;8.75;;;;;;;;;;5106507;28;20047;-82
2021/08/15 01:46:22;;;;;;;17.17;12.00;;;;;;;;;;5102668;28;20043;-81
2021/08/15 01:48:48;;;;;;;14.43;10.23;;;;;;;;;;5085410;28;20080;-81
2021/08/15 01:51:15;;;;;;;15.00;10.38;;;;;;;;;;5085382;28;20453;-82
2021/08/15 01:53:41;;;;;;;12.85;11.13;;;;;;;;;;5105103;28;20024;-82
2021/08/15 01:56:07;;;;;;;11.27;10.07;;;;;;;;;;5104768;28;20094;-81
2021/08/15 01:58:34;;;;;;;10.25;9.25;;;;;;;;;;5087139;28;20024;-82
2021/08/15 02:01:01;;;;;;;14.63;10.02;;;;;;;;;;5105087;28;20028;-82
2021/08/15 02:03:27;;;;;;;16.25;11.55;;;;;;;;;;5108403;28;20050;-82
2021/08/15 02:05:53;;;;;;;15.32;10.60;;;;;;;;;;5109587;28;20024;-82
2021/08/15 02:08:19;;;;;;;13.55;9.80;;;;;;;;;;5107896;28;20032;-83
2021/08/15 02:10:45;;;;;;;11.23;9.77;;;;;;;;;;5089240;28;20031;-82
2021/08/15 02:13:11;;;;;;;12.32;10.68;;;;;;;;;;5106694;28;20095;-82
2021/08/15 02:15:37;;;;;;;12.70;9.75;;;;;;;;;;5106685;28;20031;-81
2021/08/15 02:18:03;;;;;;;14.45;11.38;;;;;;;;;;5078999;28;20446;-81
2021/08/15 02:20:31;;;;;;;11.93;9.93;;;;;;;;;;5068767;28;20044;-81
2021/08/15 02:22:57;;;;;;;10.75;9.65;;;;;;;;;;5076963;28;20074;-83
2021/08/15 02:25:23;;;;;;;17.45;11.18;;;;;;;;;;5110117;28;20024;-82
2021/08/15 02:27:50;;;;;;;11.32;9.35;;;;;;;;;;5111954;28;20311;-82
2021/08/15 02:30:17;;;;;;;11.82;10.02;;;;;;;;;;5111270;28;20025;-81
2021/08/15 02:32:43;;;;;;;12.57;10.70;;;;;;;;;;5092918;28;20016;-82
2021/08/15 02:35:10;;;;;;;13.85;11.23;;;;;;;;;;5116541;28;20013;-81
2021/08/15 02:37:37;;;;;;;14.45;10.32;;;;;;;;;;5116076;28;20088;-82
2021/08/15 02:40:04;;;;;;;16.77;10.60;;;;;;;;;;5073372;28;20057;-82
2021/08/15 02:42:31;;;;;;;14.35;10.88;;;;;;;;;;5090540;28;20028;-82
2021/08/15 02:44:57;;;;;;;12.18;10.32;;;;;;;;;;5094417;28;20024;-83
2021/08/15 02:47:23;;;;;;;11.25;10.13;;;;;;;;;;5110422;28;20040;-81
2021/08/15 02:49:49;;;;;;;13.88;9.25;;;;;;;;;;5111096;28;20079;-80
2021/08/15 02:52:15;;;;;;;12.82;9.18;;;;;;;;;;5110438;28;20020;-81
2021/08/15 02:54:41;;;;;;;13.18;9.30;;;;;;;;;;5108615;28;20024;-81
2021/08/15 02:57:08;;;;;;;15.52;11.27;;;;;;;;;;5093749;28;20027;-82
2021/08/15 02:59:39;;;;;;;14.50;10.90;;;;;;;;;;5117222;28;20043;-83
2021/08/15 03:02:23;;;;;;;15.68;11.50;;;;;;;;;;5102045;28;20436;-82
2021/08/15 03:04:50;;;;;;;13.15;9.85;;;;;;;;;;5097979;28;20024;-82
2021/08/15 03:07:17;;;;;;;12.25;10.15;;;;;;;;;;5071120;28;20035;-82
2021/08/15 03:09:43;;;;;;;12.65;10.63;;;;;;;;;;5088193;28;20032;-82
2021/08/15 03:12:10;;;;;;;13.75;10.88;;;;;;;;;;5071507;28;20101;-81
2021/08/15 03:14:38;;;;;;;15.98;11.43;;;;;;;;;;5077288;28;20024;-82
2021/08/15 03:17:04;;;;;;;13.02;11.15;;;;;;;;;;5109633;28;20012;-81
2021/08/15 03:19:33;;;;;;;13.63;11.20;;;;;;;;;;5109269;28;20465;-82
2021/08/15 03:21:59;;;;;;;10.82;9.70;;;;;;;;;;5109312;28;20031;-81
2021/08/15 03:24:25;;;;;;;12.85;10.90;;;;;;;;;;5090102;28;20077;-81
2021/08/15 03:26:51;;;;;;;13.40;10.55;;;;;;;;;;5071510;28;20123;-81
2021/08/15 03:29:17;;;;;;;12.20;10.65;;;;;;;;;;5076722;28;20077;-81
2021/08/15 03:31:47;;;;;;;12.25;10.95;;;;;;;;;;5101140;28;20020;-83
2021/08/15 03:34:14;;;;;;;12.05;10.73;;;;;;;;;;5108695;28;20028;-82
2021/08/15 03:36:40;;;;;;;12.73;10.00;;;;;;;;;;5092550;28;20389;-83
2021/08/15 03:39:06;;;;;;;11.50;10.25;;;;;;;;;;5089735;28;20112;-83
2021/08/15 03:41:32;;;;;;;11.05;9.95;;;;;;;;;;5089041;28;20024;-82
2021/08/15 03:43:58;;;;;;;11.23;9.55;;;;;;;;;;5070872;28;20035;-82
2021/08/15 03:46:25;;;;;;;10.90;9.75;;;;;;;;;;5088958;28;20037;-81
2021/08/15 03:48:51;;;;;;;10.75;9.15;;;;;;;;;;5070498;28;20088;-81
2021/08/15 03:51:18;;;;;;;11.82;9.68;;;;;;;;;;5089039;28;20028;-81
2021/08/15 03:53:44;;;;;;;12.25;9.65;;;;;;;;;;5088176;28;20017;-82
2021/08/15 03:56:10;;;;;;;11.30;10.13;;;;;;;;;;5095086;28;20058;-79
2021/08/15 03:58:36;;;;;;;11.25;9.88;;;;;;;;;;5108463;28;20032;-81
2021/08/15 04:01:03;;;;;;;11.20;9.27;;;;;;;;;;5109209;28;20032;-81
2021/08/15 04:03:29;;;;;;;10.90;9.45;;;;;;;;;;5090603;28;20024;-81
2021/08/15 04:05:56;;;;;;;10.68;9.63;;;;;;;;;;5106381;28;20028;-82
2021/08/15 04:08:23;;;;;;;14.18;10.48;;;;;;;;;;5088008;28;20025;-83
2021/08/15 04:10:49;;;;;;;11.63;10.25;;;;;;;;;;5068955;28;20020;-82
2021/08/15 04:13:15;;;;;;;14.60;11.32;;;;;;;;;;5089002;28;20054;-82
2021/08/15 04:15:41;;;;;;;15.48;10.70;;;;;;;;;;5087862;28;20033;-81
2021/08/15 04:18:07;;;;;;;11.82;10.63;;;;;;;;;;5104984;28;20032;-80
2021/08/15 04:20:34;;;;;;;14.40;10.68;;;;;;;;;;5107838;28;20035;-81
2021/08/15 04:23:00;;;;;;;13.05;10.63;;;;;;;;;;5107706;28;20032;-81
2021/08/15 04:25:26;;;;;;;15.13;10.25;;;;;;;;;;5108316;28;20028;-81
2021/08/15 04:27:52;;;;;;;13.02;9.93;;;;;;;;;;5096141;28;20024;-82
2021/08/15 04:30:18;;;;;;;11.65;10.00;;;;;;;;;;5098814;28;20017;-82
2021/08/15 04:32:44;;;;;;;10.85;9.75;;;;;;;;;;5088620;28;20265;-81
2021/08/15 04:35:10;;;;;;;11.70;9.50;;;;;;;;;;5115272;28;20035;-81
2021/08/15 04:37:36;;;;;;;11.85;9.82;;;;;;;;;;5106792;28;20060;-82
2021/08/15 04:40:03;;;;;;;15.20;10.30;;;;;;;;;;5077335;28;20036;-81
2021/08/15 04:42:29;;;;;;;16.00;10.15;;;;;;;;;;5095556;28;20013;-82
2021/08/15 04:44:55;;;;;;;12.15;10.23;;;;;;;;;;5076637;28;20036;-82
2021/08/15 04:47:21;;;;;;;12.73;10.23;;;;;;;;;;5096500;28;20097;-82
2021/08/15 04:49:47;;;;;;;14.10;10.05;;;;;;;;;;5092237;28;20040;-83
2021/08/15 04:52:14;;;;;;;13.85;10.68;;;;;;;;;;5096392;28;20028;-83
2021/08/15 04:54:40;;;;;;;12.50;9.13;;;;;;;;;;5094269;28;20081;-82
2021/08/15 04:57:06;;;;;;;10.68;9.50;;;;;;;;;;5089107;28;20024;-82
2021/08/15 04:59:32;;;;;;;9.48;8.48;;;;;;;;;;5108587;28;20028;-83
2021/08/15 05:01:58;;;;;;;13.98;10.20;;;;;;;;;;5082615;28;20016;-82
2021/08/15 05:04:24;;;;;;;11.20;9.50;;;;;;;;;;5107740;28;20028;-82
2021/08/15 05:06:50;;;;;;;12.10;10.25;;;;;;;;;;5097706;28;20043;-82
2021/08/15 05:09:16;;;;;;;11.85;9.13;;;;;;;;;;5082646;28;20455;-79
2021/08/15 05:11:42;;;;;;;12.82;9.90;;;;;;;;;;5087537;28;20028;-81
2021/08/15 05:14:08;;;;;;;12.20;8.38;;;;;;;;;;5070452;28;20108;-80
2021/08/15 05:16:35;;;;;;;12.15;8.95;;;;;;;;;;5088821;28;20004;-82
2021/08/15 05:19:01;;;;;;;11.05;8.32;;;;;;;;;;5078399;28;20020;-82
2021/08/15 05:21:27;;;;;;;9.65;8.45;;;;;;;;;;5108094;28;20039;-81
2021/08/15 05:23:53;;;;;;;9.68;8.50;;;;;;;;;;5090834;28;20043;-81
2021/08/15 05:26:19;;;;;;;12.55;8.70;;;;;;;;;;5112675;28;20036;-80
2021/08/15 05:28:45;;;;;;;11.07;9.68;;;;;;;;;;5112460;28;20096;-82
2021/08/15 05:31:12;;;;;;;10.52;8.90;;;;;;;;;;5103312;28;20050;-82
2021/08/15 05:33:38;;;;;;;12.75;9.18;;;;;;;;;;5091428;28;20042;-81
2021/08/15 05:36:04;;;;;;;10.40;9.07;;;;;;;;;;5089816;28;20035;-81
2021/08/15 05:38:30;;;;;;;13.77;9.38;;;;;;;;;;5090786;28;20024;-83
2021/08/15 05:40:56;;;;;;;13.93;9.93;;;;;;;;;;5071714;28;20401;-83
2021/08/15 05:43:22;;;;;;;12.40;9.20;;;;;;;;;;5070074;28;20025;-82
2021/08/15 05:45:48;;;;;;;11.23;8.40;;;;;;;;;;5071138;28;20101;-83
2021/08/15 05:48:14;;;;;;;11.30;9.07;;;;;;;;;;5087062;28;20028;-82
2021/08/15 05:50:40;;;;;;;13.05;10.07;;;;;;;;;;5078007;28;20044;-81
2021/08/15 05:53:06;;;;;;;11.80;9.10;;;;;;;;;;5108153;28;20039;-82
2021/08/15 05:55:32;;;;;;;14.38;9.30;;;;;;;;;;5107284;28;20050;-83
2021/08/15 05:57:58;;;;;;;16.70;9.30;;;;;;;;;;5093944;28;20032;-82
2021/08/15 06:00:24;;;;;;;16.10;10.43;;;;;;;;;;5111325;28;20019;-81
2021/08/15 06:02:50;;;;;;;17.65;10.15;;;;;;;;;;5095061;28;20096;-81
2021/08/15 06:05:17;;;;;;;14.70;9.80;;;;;;;;;;5091783;28;20052;-82
2021/08/15 06:07:43;;;;;;;18.98;11.32;;;;;;;;;;5091435;28;20035;-82
2021/08/15 06:10:09;;;;;;;15.05;9.15;;;;;;;;;;5076868;28;20035;-81
2021/08/15 06:12:36;;;;;;;16.20;10.63;;;;;;;;;;5117978;28;20069;-82
2021/08/15 06:15:04;;;;;;;14.68;9.10;;;;;;;;;;5119215;28;20051;-82
2021/08/15 06:17:30;;;;;;;13.98;9.88;;;;;;;;;;5101361;28;20086;-83
2021/08/15 06:19:56;;;;;;;11.50;9.98;;;;;;;;;;5118034;28;20051;-82
2021/08/15 06:22:22;;;;;;;15.18;10.30;;;;;;;;;;5098140;28;20052;-81
2021/08/15 06:24:48;;;;;;;15.50;10.00;;;;;;;;;;5075261;28;20032;-80
2021/08/15 06:27:14;;;;;;;15.45;9.20;;;;;;;;;;5079821;28;20036;-81
2021/08/15 06:29:40;;;;;;;14.52;10.40;;;;;;;;;;5107587;28;20004;-83
2021/08/15 06:32:07;;;;;;;18.33;10.05;;;;;;;;;;5106007;28;20556;-80
2021/08/15 06:34:33;;;;;;;11.93;9.27;;;;;;;;;;5092524;28;20024;-81
2021/08/15 06:36:59;;;;;;;15.15;10.05;;;;;;;;;;5096345;28;20017;-80
2021/08/15 06:39:25;;;;;;;17.20;11.63;;;;;;;;;;5096602;28;20016;-82
2021/08/15 06:41:51;;;;;;;14.95;11.32;;;;;;;;;;5103056;28;20035;-83
2021/08/15 06:44:17;;;;;;;13.35;10.40;;;;;;;;;;5113741;28;20024;-82
2021/08/15 06:46:43;;;;;;;11.82;10.02;;;;;;;;;;5113566;28;20036;-81
2021/08/15 06:49:12;;;;;;;12.77;10.10;;;;;;;;;;5113399;28;20034;-82
2021/08/15 06:51:43;;;;;;;12.13;9.30;;;;;;;;;;5094909;28;20024;-82
2021/08/15 06:54:12;;;;;;;12.40;9.85;;;;;;;;;;5093932;28;20020;-81
2021/08/15 06:56:41;;;;;;;17.88;11.98;;;;;;;;;;5111434;28;20111;-81
2021/08/15 06:59:07;;;;;;;11.85;9.75;;;;;;;;;;5106761;28;20020;-81
2021/08/15 07:01:33;;;;;;;12.43;10.73;;;;;;;;;;5096682;28;20052;-80
2021/08/15 07:04:02;;;;;;;11.95;9.90;;;;;;;;;;5111810;28;20091;-81
2021/08/15 07:06:31;;;;;;;11.15;9.93;;;;;;;;;;5110984;28;20020;-81
2021/08/15 07:08:57;;;;;;;13.20;10.38;;;;;;;;;;5111446;28;20193;-82
2021/08/15 07:11:23;;;;;;;13.38;10.20;;;;;;;;;;5100811;28;20078;-81
2021/08/15 07:13:49;;;;;;;12.00;9.82;;;;;;;;;;5102612;28;20047;-81
2021/08/15 07:16:15;;;;;;;10.43;9.20;;;;;;;;;;5084491;28;20020;-82
2021/08/15 07:18:42;;;;;;;13.20;10.15;;;;;;;;;;5086375;28;20119;-82
2021/08/15 07:21:08;;;;;;;18.98;11.00;;;;;;;;;;5068561;28;20024;-81
2021/08/15 07:23:34;;;;;;;12.18;10.85;;;;;;;;;;5089638;28;20059;-82
2021/08/15 07:26:02;;;;;;;13.93;10.70;;;;;;;;;;5073820;28;20058;-82
2021/08/15 07:28:28;;;;;;;11.50;10.00;;;;;;;;;;5092488;28;20020;-81
2021/08/15 07:30:54;;;;;;;15.20;9.98;;;;;;;;;;5079695;28;20366;-81
2021/08/15 07:33:20;;;;;;;13.82;10.43;;;;;;;;;;5092586;28;20028;-81
2021/08/15 07:35:47;;;;;;;14.88;10.55;;;;;;;;;;5090945;28;20039;-82
2021/08/15 07:38:13;;;;;;;13.75;10.00;;;;;;;;;;5091546;28;20039;-82
2021/08/15 07:40:39;;;;;;;11.60;9.93;;;;;;;;;;5104121;28;20111;-80
2021/08/15 07:43:05;;;;;;;11.77;9.20;;;;;;;;;;5114095;28;20024;-82
2021/08/15 07:45:32;;;;;;;10.70;9.45;;;;;;;;;;5113679;28;20040;-82
2021/08/15 07:47:58;;;;;;;16.48;10.05;;;;;;;;;;5112768;28;20058;-82
2021/08/15 07:50:24;;;;;;;11.30;9.57;;;;;;;;;;5090652;28;20025;-82
2021/08/15 07:52:50;;;;;;;16.42;9.90;;;;;;;;;;5095025;28;20016;-82
2021/08/15 07:55:16;;;;;;;12.75;9.98;;;;;;;;;;5091478;28;20028;-81
2021/08/15 07:57:43;;;;;;;11.48;9.57;;;;;;;;;;5073976;28;20027;-81
2021/08/15 08:00:09;;;;;;;11.80;9.27;;;;;;;;;;5088036;28;20039;-80
2021/08/15 08:02:35;;;;;;;12.20;9.32;;;;;;;;;;5103991;28;20457;-81
2021/08/15 08:05:01;;;;;;;11.90;9.40;;;;;;;;;;5111162;28;20040;-80
2021/08/15 08:07:27;;;;;;;16.83;9.50;;;;;;;;;;5091862;28;20023;-81
2021/08/15 08:09:53;;;;;;;10.90;9.80;;;;;;;;;;5110786;28;20400;-80
2021/08/15 08:12:20;;;;;;;9.43;8.43;;;;;;;;;;5094442;28;20025;-80
2021/08/15 08:14:47;;;;;;;10.43;9.25;;;;;;;;;;5079262;28;20044;-80
2021/08/15 08:17:13;;;;;;;12.60;9.23;;;;;;;;;;5096662;28;20046;-80
2021/08/15 08:19:40;;;;;;;11.63;8.55;;;;;;;;;;5096650;28;20032;-82
2021/08/15 08:22:06;;;;;;;9.90;8.90;;;;;;;;;;5107247;28;20035;-81
2021/08/15 08:24:32;;;;;;;10.35;8.98;;;;;;;;;;5111309;28;20102;-81
2021/08/15 08:26:59;;;;;;;10.35;8.45;;;;;;;;;;5108915;28;20034;-81
2021/08/15 08:29:25;;;;;;;12.05;9.45;;;;;;;;;;5112165;28;20091;-80
2021/08/15 08:31:51;;;;;;;9.88;8.90;;;;;;;;;;5099445;28;20020;-81
2021/08/15 08:34:17;;;;;;;10.75;8.70;;;;;;;;;;5091607;28;20024;-81
2021/08/15 08:36:43;;;;;;;11.20;8.95;;;;;;;;;;5091306;28;20028;-80
2021/08/15 08:39:09;;;;;;;10.70;8.70;;;;;;;;;;5091296;28;20036;-81
2021/08/15 08:41:37;;;;;;;10.40;8.95;;;;;;;;;;5107888;28;20028;-81
2021/08/15 08:44:04;;;;;;;9.95;8.90;;;;;;;;;;5089155;28;20044;-81
2021/08/15 08:46:31;;;;;;;11.77;8.85;;;;;;;;;;5089595;28;20043;-81
2021/08/15 08:48:58;;;;;;;10.55;8.82;;;;;;;;;;5089046;28;20031;-82
2021/08/15 08:51:24;;;;;;;12.52;8.65;;;;;;;;;;5072213;28;20023;-82
2021/08/15 08:53:51;;;;;;;10.48;7.97;;;;;;;;;;5106230;28;20036;-81
2021/08/15 08:56:17;;;;;;;11.52;8.35;;;;;;;;;;5108840;28;20072;-81
2021/08/15 08:58:43;;;;;;;9.35;8.45;;;;;;;;;;5109147;28;20031;-81
2021/08/15 09:01:13;;;;;;;10.35;8.50;;;;;;;;;;5093310;28;20107;-81
2021/08/15 09:03:42;;;;;;;15.07;8.50;;;;;;;;;;5083292;28;20048;-81
2021/08/15 09:06:22;;;;;;;9.38;7.95;;;;;;;;;;5110251;28;20055;-81
2021/08/15 09:08:49;;;;;;;10.82;9.15;;;;;;;;;;5110061;28;20071;-81
2021/08/15 09:11:15;;;;;;;12.75;9.25;;;;;;;;;;5091761;28;20028;-81
2021/08/15 09:13:41;;;;;;;15.82;8.23;;;;;;;;;;5098664;28;20036;-81
2021/08/15 09:16:07;;;;;;;9.77;8.77;;;;;;;;;;5071766;28;20024;-81
2021/08/15 09:18:34;;;;;;;10.80;8.93;;;;;;;;;;5089276;28;20046;-81
2021/08/15 09:21:00;;;;;;;10.73;8.48;;;;;;;;;;5089527;28;20088;-81
2021/08/15 09:23:29;;;;;;;12.25;8.93;;;;;;;;;;5095066;28;20471;-81
2021/08/15 09:26:15;;;;;;;10.38;9.32;;;;;;;;;;5091150;28;20096;-81
2021/08/15 09:28:42;;;;;;;12.32;9.90;;;;;;;;;;5091141;28;20040;-82
2021/08/15 09:31:24;;;;;;;11.07;8.88;;;;;;;;;;5084855;28;20027;-81
2021/08/15 09:33:50;;;;;;;10.70;9.00;;;;;;;;;;5084741;28;20020;-84
2021/08/15 09:36:32;;;;;;;13.38;9.02;;;;;;;;;;5095256;28;20032;-82
2021/08/15 09:38:59;;;;;;;16.80;9.27;;;;;;;;;;5113845;28;20024;-80
2021/08/15 09:41:27;;;;;;;10.52;9.00;;;;;;;;;;5114262;28;20033;-80
2021/08/15 09:44:12;;;;;;;12.98;8.93;;;;;;;;;;5093996;28;20104;-80
2021/08/15 09:46:56;;;;;;;10.88;8.88;;;;;;;;;;5079438;28;20027;-81
2021/08/15 09:49:22;;;;;;;12.70;9.30;;;;;;;;;;5093113;28;20107;-81
2021/08/15 09:51:48;;;;;;;11.95;9.57;;;;;;;;;;5094224;28;20028;-81
2021/08/15 09:54:18;;;;;;;12.13;9.25;;;;;;;;;;5097706;28;20012;-81
2021/08/15 09:56:44;;;;;;;14.15;8.80;;;;;;;;;;5113812;28;20043;-81
2021/08/15 09:59:14;;;;;;;11.45;9.68;;;;;;;;;;5113722;28;20035;-81
2021/08/15 10:01:41;;;;;;;13.15;8.95;;;;;;;;;;5112231;28;20028;-81
2021/08/15 10:04:08;;;;;;;11.85;8.27;;;;;;;;;;5113616;28;20094;-81
2021/08/15 10:06:38;;;;;;;16.15;10.38;;;;;;;;;;5094583;28;20028;-81
2021/08/15 10:09:05;;;;;;;15.90;8.43;;;;;;;;;;5093556;28;20020;-81
2021/08/15 10:11:31;;;;;;;10.13;9.05;;;;;;;;;;5112840;28;20326;-81
2021/08/15 10:14:04;;;;;;;12.85;10.82;;;;;;;;;;5113119;28;20028;-81
2021/08/15 10:16:49;;;;;;;11.73;10.10;;;;;;;;;;5114337;28;20444;-80
2021/08/15 10:19:17;;;;;;;10.82;9.60;;;;;;;;;;5095552;28;20051;-82
2021/08/15 10:21:47;;;;;;;15.82;10.43;;;;;;;;;;5096360;28;20035;-81
2021/08/15 10:24:14;;;;;;;15.25;9.80;;;;;;;;;;5113915;28;20428;-81
2021/08/15 10:26:48;;;;;;;14.63;9.40;;;;;;;;;;5113489;28;20047;-82
2021/08/15 10:29:43;;;;;;;12.27;9.77;;;;;;;;;;5113841;28;20369;-82
2021/08/15 10:32:09;;;;;;;16.55;9.43;;;;;;;;;;5085131;28;20016;-83
2021/08/15 10:34:51;;;;;;;11.70;8.93;;;;;;;;;;5113036;28;20046;-82
2021/08/15 10:37:23;;;;;;;12.05;9.55;;;;;;;;;;5111500;28;20028;-82
2021/08/15 10:39:50;;;;;;;12.40;9.57;;;;;;;;;;5112259;28;20008;-82
2021/08/15 10:42:35;;;;;;;11.68;9.43;;;;;;;;;;5111523;28;20035;-82
2021/08/15 10:45:03;;;;;;;10.30;9.30;;;;;;;;;;5091772;28;20028;-82
2021/08/15 10:47:29;;;;;;;11.50;8.65;;;;;;;;;;5084509;28;20048;-82
2021/08/15 10:49:56;;;;;;;12.00;9.27;;;;;;;;;;5062799;28;20036;-82
2021/08/15 10:52:28;;;;;;;14.18;9.00;;;;;;;;;;5081778;28;20017;-82
2021/08/15 10:54:59;;;;;;;12.15;9.10;;;;;;;;;;5064592;28;20025;-82
2021/08/15 10:57:34;;;;;;;10.52;8.90;;;;;;;;;;5093746;28;20124;-82
2021/08/15 11:00:00;;;;;;;13.90;8.75;;;;;;;;;;5095401;28;20030;-82
2021/08/15 11:02:32;;;;;;;15.30;9.25;;;;;;;;;;5093321;28;20023;-82
2021/08/15 11:04:59;;;;;;;12.48;8.50;;;;;;;;;;5114831;28;20084;-80
2021/08/15 11:07:35;;;;;;;12.13;8.65;;;;;;;;;;5090637;28;20104;-80
2021/08/15 11:10:02;;;;;;;11.23;8.93;;;;;;;;;;5070350;28;20048;-81
2021/08/15 11:12:28;;;;;;;13.98;8.98;;;;;;;;;;5083506;28;20104;-80
2021/08/15 11:15:00;;;;;;;16.30;8.30;;;;;;;;;;5081859;28;20024;-81
2021/08/15 11:17:27;;;;;;;10.77;8.77;;;;;;;;;;5088499;28;20032;-81
2021/08/15 11:19:53;;;;;;;13.13;9.05;;;;;;;;;;5102392;28;20036;-81
2021/08/15 11:22:24;;;;;;;11.40;8.10;;;;;;;;;;5084680;28;20024;-80
2021/08/15 11:24:50;;;;;;;9.52;8.45;;;;;;;;;;5101007;28;20272;-81
2021/08/15 11:27:19;;;;;;;13.40;9.15;;;;;;;;;;5080011;28;20070;-80
2021/08/15 11:29:47;;;;;;;12.38;9.25;;;;;;;;;;5070272;28;20206;-81
2021/08/15 11:32:14;;;;;;;11.95;8.88;;;;;;;;;;5093328;28;20058;-81
2021/08/15 11:34:49;;;;;;;14.32;9.13;;;;;;;;;;5100370;28;20020;-81
2021/08/15 11:37:18;;;;;;;13.57;8.50;;;;;;;;;;5088425;28;20024;-80
2021/08/15 11:39:44;;;;;;;11.40;9.40;;;;;;;;;;5099058;28;20079;-80
2021/08/15 11:42:26;;;;;;;11.77;7.93;;;;;;;;;;5108180;28;20051;-81
2021/08/15 11:44:54;;;;;;;10.45;8.93;;;;;;;;;;5104426;28;20036;-81
2021/08/15 11:47:24;;;;;;;14.18;9.02;;;;;;;;;;5108195;28;20108;-80
2021/08/15 11:49:51;;;;;;;10.50;8.30;;;;;;;;;;5070475;28;20035;-80
2021/08/15 11:52:21;;;;;;;14.27;8.93;;;;;;;;;;5069735;28;20032;-82
2021/08/15 11:54:48;;;;;;;14.60;8.35;;;;;;;;;;5087486;28;20152;-81
2021/08/15 11:57:14;;;;;;;12.27;8.77;;;;;;;;;;5086999;28;20028;-80
2021/08/15 11:59:45;;;;;;;11.27;8.43;;;;;;;;;;5074822;28;20039;-81
2021/08/15 12:02:18;;;;;;;14.18;9.05;;;;;;;;;;5081218;28;20620;-82
2021/08/15 12:04:45;;;;;;;11.48;8.43;;;;;;;;;;5088925;28;20034;-82
2021/08/15 12:07:12;;;;;;;18.58;9.05;;;;;;;;;;5089681;28;20042;-83
2021/08/15 12:09:38;;;;;;;10.75;8.48;;;;;;;;;;5087216;28;20088;-81
2021/08/15 12:12:05;;;;;;;12.73;9.23;;;;;;;;;;5107425;28;20486;-81
2021/08/15 12:14:36;;;;;;;11.40;7.72;;;;;;;;;;5106067;28;20073;-81
2021/08/15 12:17:02;;;;;;;15.30;8.50;;;;;;;;;;5088331;28;20020;-81
2021/08/15 12:19:29;;;;;;;11.57;8.55;;;;;;;;;;5077705;28;20055;-82
2021/08/15 12:21:56;;;;;;;10.38;9.05;;;;;;;;;;5080454;28;20024;-82
2021/08/15 12:24:25;;;;;;;14.82;9.02;;;;;;;;;;5061981;28;20071;-82
2021/08/15 12:27:02;;;;;;;13.77;8.68;;;;;;;;;;5081939;28;20484;-82
2021/08/15 12:29:31;;;;;;;11.60;8.02;;;;;;;;;;5082260;28;20523;-82
2021/08/15 12:32:02;;;;;;;10.90;8.27;;;;;;;;;;5088448;28;20055;-82
2021/08/15 12:34:28;;;;;;;13.80;8.27;;;;;;;;;;5061403;28;20024;-82
2021/08/15 12:36:55;;;;;;;13.60;8.88;;;;;;;;;;5081619;28;20028;-81
2021/08/15 12:39:31;;;;;;;10.55;7.85;;;;;;;;;;5088173;28;20050;-81
2021/08/15 12:41:58;;;;;;;12.13;8.48;;;;;;;;;;5067872;28;20038;-81
2021/08/15 12:44:26;;;;;;;13.15;9.68;;;;;;;;;;5089503;28;20020;-81
2021/08/15 12:47:00;;;;;;;11.38;8.70;;;;;;;;;;5068132;28;20036;-82
2021/08/15 12:49:27;;;;;;;10.38;8.77;;;;;;;;;;5084491;28;20039;-80
2021/08/15 12:52:08;;;;;;;13.30;8.73;;;;;;;;;;5081709;28;20031;-80
2021/08/15 12:54:34;;;;;;;11.88;8.68;;;;;;;;;;5082415;28;20538;-81
2021/08/15 12:57:00;;;;;;;25.73;8.48;;;;;;;;;;5100347;28;20320;-80
2021/08/15 12:59:27;;;;;;;11.65;8.60;;;;;;;;;;5099960;28;20035;-81
2021/08/15 13:01:53;;;;;;;10.82;9.07;;;;;;;;;;5096614;28;20044;-81
2021/08/15 13:04:19;;;;;;;10.18;8.15;;;;;;;;;;5079991;28;20425;-82
2021/08/15 13:06:45;;;;;;;12.57;9.25;;;;;;;;;;5066582;28;20013;-81
2021/08/15 13:09:11;;;;;;;12.73;8.45;;;;;;;;;;5066693;28;20131;-82
2021/08/15 13:11:37;;;;;;;13.48;9.00;;;;;;;;;;5085997;28;20028;-81
2021/08/15 13:14:03;;;;;;;11.50;9.35;;;;;;;;;;5062014;28;20138;-82
2021/08/15 13:16:29;;;;;;;12.15;8.70;;;;;;;;;;5080407;28;20032;-81
2021/08/15 13:18:55;;;;;;;17.17;8.57;;;;;;;;;;5061871;28;20018;-81
2021/08/15 13:21:22;;;;;;;13.82;8.80;;;;;;;;;;5085183;28;20059;-81
2021/08/15 13:23:48;;;;;;;10.68;8.30;;;;;;;;;;5082589;28;20040;-81
2021/08/15 13:26:14;;;;;;;10.10;8.43;;;;;;;;;;5100662;28;20087;-82
2021/08/15 13:28:40;;;;;;;8.68;7.35;;;;;;;;;;5100195;28;20039;-82
2021/08/15 13:31:06;;;;;;;16.45;8.73;;;;;;;;;;5072630;28;20036;-82
2021/08/15 13:33:33;;;;;;;10.75;7.70;;;;;;;;;;5068155;28;20025;-81
2021/08/15 13:35:59;;;;;;;14.60;7.95;;;;;;;;;;5079776;28;20098;-81
2021/08/15 13:38:25;;;;;;;11.70;8.90;;;;;;;;;;5079806;28;20024;-81
2021/08/15 13:40:51;;;;;;;16.45;8.00;;;;;;;;;;5061378;28;20024;-81
2021/08/15 13:43:17;;;;;;;12.35;7.65;;;;;;;;;;5080301;28;20032;-80
2021/08/15 13:45:44;;;;;;;12.43;7.93;;;;;;;;;;5081370;28;20036;-81
2021/08/15 13:48:11;;;;;;;12.02;7.35;;;;;;;;;;5080605;28;20024;-81
2021/08/15 13:50:37;;;;;;;12.80;7.95;;;;;;;;;;5062686;28;20025;-81
2021/08/15 13:53:03;;;;;;;12.02;7.75;;;;;;;;;;5080308;28;20066;-81
2021/08/15 13:55:30;;;;;;;10.48;8.40;;;;;;;;;;5090830;28;20016;-80
2021/08/15 13:57:56;;;;;;;11.25;8.35;;;;;;;;;;5073631;28;20036;-81
2021/08/15 14:00:22;;;;;;;10.23;7.65;;;;;;;;;;5084713;28;20025;-81
2021/08/15 14:02:48;;;;;;;9.23;7.32;;;;;;;;;;5084816;28;20080;-83
2021/08/15 14:05:18;;;;;;;9.60;7.38;;;;;;;;;;5068466;28;20044;-81
2021/08/15 14:07:44;;;;;;;12.23;7.95;;;;;;;;;;5088812;28;20028;-80
2021/08/15 14:10:10;;;;;;;9.90;8.32;;;;;;;;;;5085879;28;20033;-82
2021/08/15 14:12:36;;;;;;;12.93;8.05;;;;;;;;;;5098083;28;20028;-81
2021/08/15 14:15:03;;;;;;;9.15;6.57;;;;;;;;;;5083667;28;20088;-81
2021/08/15 14:17:29;;;;;;;10.45;7.25;;;;;;;;;;5105105;28;20016;-81
2021/08/15 14:19:55;;;;;;;12.57;7.60;;;;;;;;;;5098084;28;20012;-81
2021/08/15 14:22:21;;;;;;;10.35;8.20;;;;;;;;;;5101663;28;20031;-82
2021/08/15 14:24:48;;;;;;;8.93;8.02;;;;;;;;;;5066614;28;20029;-82
2021/08/15 14:27:14;;;;;;;9.82;8.00;;;;;;;;;;5086278;28;20024;-82
2021/08/15 14:29:40;;;;;;;10.82;8.20;;;;;;;;;;5086440;28;20035;-82